METAR AND TAF INFORMATION
METAR FOR LDSP
ADDS - METARS form results

(0529 UTC 01 October 2020)
Data provider http://aviationweather.gov/metar/data/
 
METAR text: LDSP 010500Z 31006KT 290V010 CAVOK 16/11 Q1010 NOSIG
Conditions at: LDSP (SPLIT/KASTEL STA, HR) observed 0500 UTC 01 October 2020
Temperature: 16.0°C (61°F)
Dewpoint: 11.0°C (52°F) [RH = 72%]
Pressure (altimeter): 29.82 inches Hg (1010.0 mb)
Winds: from the NW (310 degrees) at 7 MPH (6 knots; 3.1 m/s)
Visibility: 6 or more miles (10+ km)
Ceiling: ceiling and visibility are OK
Clouds: unknown
Weather: no significant weather observed at this time

METAR text: LDSP 010430Z 36006KT CAVOK 13/11 Q1010 NOSIG
Conditions at: LDSP (SPLIT/KASTEL STA, HR) observed 0430 UTC 01 October 2020
Temperature: 13.0°C (55°F)
Dewpoint: 11.0°C (52°F) [RH = 88%]
Pressure (altimeter): 29.82 inches Hg (1010.0 mb)
Winds: from the N (360 degrees) at 7 MPH (6 knots; 3.1 m/s)
Visibility: 6 or more miles (10+ km)
Ceiling: ceiling and visibility are OK
Clouds: unknown
Weather: no significant weather observed at this time

Forecast for: LDSP (SPLIT/KASTEL STA, HR)
Text: TAF LDSP 010525Z 0106/0206 31006KT CAVOK TX21/0112Z TN14/0106Z
Forecast period: 0600 to 1100 UTC 01 October 2020
Forecast type: FROM: standard forecast or significant change
Winds: from the NW (310 degrees) at 7 MPH (6 knots; 3.1 m/s)
Visibility: 6 or more miles (10+ km)
Ceiling: unknown
Clouds: missing
Weather: no significant weather forecast for this period
Text: BECMG 0111/0113 23009KT
Forecast period: 1100 to 1600 UTC 01 October 2020
Forecast type: BECOMING: Conditions expected to become as follows by 1300 UTC 01 October 2020
Winds: from the SW (230 degrees) at 10 MPH (9 knots; 4.6 m/s)
Visibility: 6 or more miles (10+ km)
Ceiling: unknown
Clouds: missing
Weather: no significant weather forecast for this period
Text: BECMG 0116/0118 10005KT
Forecast period: 1600 UTC 01 October 2020 to 0600 UTC 02 October 2020
Forecast type: BECOMING: Conditions expected to become as follows by 1800 UTC 01 October 2020
Winds: from the E (100 degrees) at 6 MPH (5 knots; 2.6 m/s)
Visibility: 6 or more miles (10+ km)
Ceiling: unknown
Clouds: missing
Weather: no significant weather forecast for this period

 AIRPORT MAP

 RUNWAY INFORMATION
Runway 05 Runway length 8366 ft Runway width 148 ft
Runway elevation 70 ft Runway displaced threshold 0 ft Runway heading 53
Runway 23 Runway length 8366 ft Runway width 148 ft
Runway elevation 50 ft Runway displaced threshold 525 ft Runway heading 233

 AIRPORT FREQUENCIES
Type APP Name APP Frequency 120.875 MHZ
Type INFO Name INFO Frequency 128.675 MHZ
Type TWR Name TWR Frequency 124.675 MHZ

 AIRPORT NEAR NAVIGATION AIDS
Type NDB Name Drvenik Frequency 418 KHZ
Type VOR-DME Name Split Frequency 115700 KHZ
Type NDB Name Trogir Frequency 378 KHZ